createdAt,value
2022-12-29T00:01:10.654Z,13.80
2022-12-29T00:03:37.655Z,13.70
2022-12-29T00:06:07.647Z,13.70
2022-12-29T00:08:41.029Z,13.60
2022-12-29T00:11:10.276Z,13.60
2022-12-29T00:14:00.233Z,13.70
2022-12-29T00:16:28.068Z,13.60
2022-12-29T00:18:55.200Z,13.60
2022-12-29T00:21:44.188Z,13.60
2022-12-29T00:24:37.916Z,13.60
2022-12-29T00:27:23.521Z,13.60
2022-12-29T00:30:09.245Z,13.60
2022-12-29T00:32:55.030Z,13.60
2022-12-29T00:35:33.422Z,13.50
2022-12-29T00:38:24.700Z,13.50
2022-12-29T00:41:10.329Z,13.50
2022-12-29T00:43:56.766Z,13.50
2022-12-29T00:46:23.427Z,13.40
2022-12-29T00:49:08.798Z,13.50
2022-12-29T00:51:39.070Z,13.50
2022-12-29T00:54:09.423Z,13.60
2022-12-29T00:56:36.152Z,13.60
2022-12-29T00:59:04.365Z,13.40
2022-12-29T01:01:34.185Z,13.40
2022-12-29T01:04:04.693Z,13.40
2022-12-29T01:06:32.713Z,13.30
2022-12-29T01:09:18.885Z,13.10
2022-12-29T01:11:45.768Z,13.00
2022-12-29T01:14:12.800Z,13.00
2022-12-29T01:16:39.521Z,12.90
2022-12-29T01:19:08.834Z,12.80
2022-12-29T01:21:37.050Z,12.70
2022-12-29T01:24:04.488Z,12.60
2022-12-29T01:26:31.544Z,12.50
2022-12-29T01:28:59.519Z,12.40
2022-12-29T01:31:26.265Z,12.40
2022-12-29T01:33:56.072Z,12.40
2022-12-29T01:36:28.957Z,12.40
2022-12-29T01:38:56.011Z,12.40
2022-12-29T01:41:23.419Z,12.40
2022-12-29T01:43:53.742Z,12.40
2022-12-29T01:46:38.739Z,12.30
2022-12-29T01:49:15.366Z,12.30
2022-12-29T01:51:58.794Z,12.20
2022-12-29T01:54:41.108Z,12.20
2022-12-29T01:57:36.988Z,12.30
2022-12-29T02:00:11.589Z,12.30
2022-12-29T02:02:50.989Z,12.30
2022-12-29T02:05:39.652Z,12.30
2022-12-29T02:08:09.417Z,12.30
2022-12-29T02:10:38.134Z,12.40
2022-12-29T02:13:08.160Z,12.40
2022-12-29T02:16:05.192Z,12.30
2022-12-29T02:18:45.028Z,12.30
2022-12-29T02:21:43.238Z,12.30
2022-12-29T02:24:12.857Z,12.40
2022-12-29T02:27:07.526Z,12.50
2022-12-29T02:29:53.075Z,12.50
2022-12-29T02:32:57.329Z,12.50
2022-12-29T02:35:40.535Z,12.50
2022-12-29T02:38:27.658Z,12.60
2022-12-29T02:41:42.725Z,12.60
2022-12-29T02:44:28.184Z,12.60
2022-12-29T02:47:25.105Z,12.70
2022-12-29T02:49:59.803Z,12.60
2022-12-29T02:52:43.144Z,12.60
2022-12-29T02:55:11.817Z,12.50
2022-12-29T02:57:39.435Z,12.50
2022-12-29T03:00:15.623Z,12.60
2022-12-29T03:03:14.772Z,12.80
2022-12-29T03:06:06.698Z,12.90
2022-12-29T03:08:49.902Z,12.90
2022-12-29T03:11:36.022Z,12.90
2022-12-29T03:14:47.747Z,12.80
2022-12-29T03:17:48.676Z,12.80
2022-12-29T03:20:20.982Z,12.80
2022-12-29T03:22:51.976Z,12.80
2022-12-29T03:25:36.134Z,12.80
2022-12-29T03:28:21.339Z,12.70
2022-12-29T03:30:48.064Z,12.70
2022-12-29T03:33:23.152Z,12.70
2022-12-29T03:35:52.769Z,12.80
2022-12-29T03:38:26.211Z,12.80
2022-12-29T03:40:58.068Z,12.80
2022-12-29T03:43:28.451Z,12.90
2022-12-29T03:45:55.400Z,12.90
2022-12-29T03:48:24.090Z,12.90
2022-12-29T03:50:53.597Z,12.90
2022-12-29T03:53:20.449Z,12.90
2022-12-29T03:55:47.637Z,12.80
2022-12-29T03:58:14.591Z,12.90
2022-12-29T04:00:51.990Z,13.00
2022-12-29T04:03:19.024Z,13.00
2022-12-29T04:05:45.872Z,13.00
2022-12-29T04:08:14.928Z,12.90
2022-12-29T04:10:42.923Z,12.90
2022-12-29T04:13:09.745Z,12.90
2022-12-29T04:15:36.888Z,12.90
2022-12-29T04:18:05.712Z,12.90
2022-12-29T04:20:55.787Z,13.00
2022-12-29T04:23:24.461Z,13.00
2022-12-29T04:25:52.307Z,13.00
2022-12-29T04:28:19.575Z,13.00
2022-12-29T04:31:15.367Z,13.00
2022-12-29T04:33:51.590Z,13.00
2022-12-29T04:36:18.227Z,13.00
2022-12-29T04:38:48.481Z,13.00
2022-12-29T04:41:15.437Z,13.00
2022-12-29T04:43:42.317Z,13.10
2022-12-29T04:46:17.896Z,13.10
2022-12-29T04:48:52.685Z,13.20
2022-12-29T04:51:31.629Z,13.30
2022-12-29T04:54:00.924Z,13.20
2022-12-29T04:56:34.814Z,13.10
2022-12-29T04:59:06.272Z,13.10
2022-12-29T05:01:33.068Z,13.10
2022-12-29T05:04:01.062Z,13.20
2022-12-29T05:06:28.090Z,13.20
2022-12-29T05:08:55.328Z,13.20
2022-12-29T05:11:25.468Z,13.10
2022-12-29T05:13:53.785Z,13.10
2022-12-29T05:16:25.504Z,13.10
2022-12-29T05:18:59.860Z,13.10
2022-12-29T05:21:28.229Z,13.10
2022-12-29T05:23:59.024Z,13.20
2022-12-29T05:26:27.051Z,13.20
2022-12-29T05:29:27.986Z,13.10
2022-12-29T05:32:01.487Z,13.10
2022-12-29T05:34:30.508Z,13.00
2022-12-29T05:37:01.907Z,13.00
2022-12-29T05:39:33.695Z,13.00
2022-12-29T05:42:07.467Z,13.10
2022-12-29T05:44:58.598Z,13.10
2022-12-29T05:47:41.537Z,13.20
2022-12-29T05:50:32.266Z,13.10
2022-12-29T05:53:16.101Z,13.20
2022-12-29T05:55:49.042Z,13.20
2022-12-29T05:58:20.511Z,13.20
2022-12-29T06:00:58.996Z,13.20
2022-12-29T06:03:29.650Z,13.20
2022-12-29T06:05:58.863Z,13.20
2022-12-29T06:08:30.526Z,13.30
2022-12-29T06:10:57.362Z,13.30
2022-12-29T06:13:25.069Z,13.30
2022-12-29T06:15:58.159Z,13.30
2022-12-29T06:18:26.577Z,13.30
2022-12-29T06:21:01.529Z,13.30
2022-12-29T06:23:29.975Z,13.50
2022-12-29T06:25:57.602Z,13.50
2022-12-29T06:28:50.668Z,13.40
2022-12-29T06:31:20.749Z,13.50
2022-12-29T06:33:50.185Z,13.50
2022-12-29T06:36:17.734Z,13.50
2022-12-29T06:38:45.918Z,13.50
2022-12-29T06:41:16.597Z,13.50
2022-12-29T06:44:16.215Z,13.50
2022-12-29T06:47:27.399Z,13.50
2022-12-29T06:49:54.033Z,13.50
2022-12-29T06:52:24.342Z,13.50
2022-12-29T06:54:54.924Z,13.50
2022-12-29T06:57:22.272Z,13.50
2022-12-29T06:59:50.321Z,13.50
2022-12-29T07:02:25.439Z,13.50
2022-12-29T07:04:53.592Z,13.60
2022-12-29T07:07:21.609Z,13.60
2022-12-29T07:09:55.356Z,13.70
2022-12-29T07:12:25.647Z,13.70
2022-12-29T07:14:54.358Z,13.60
2022-12-29T07:17:27.607Z,13.60
2022-12-29T07:19:55.335Z,13.50
2022-12-29T07:22:25.628Z,13.50
2022-12-29T07:24:53.696Z,13.60
2022-12-29T07:27:20.690Z,13.60
2022-12-29T07:29:47.501Z,13.70
2022-12-29T07:32:19.927Z,13.70
2022-12-29T07:34:47.708Z,13.80
2022-12-29T07:37:18.125Z,13.80
2022-12-29T07:39:46.328Z,13.80
2022-12-29T07:42:16.685Z,13.80
2022-12-29T07:44:53.915Z,13.80
2022-12-29T07:47:32.624Z,13.90
2022-12-29T07:50:00.275Z,13.90
2022-12-29T07:52:28.704Z,13.90
2022-12-29T07:54:56.748Z,14.00
2022-12-29T07:57:54.934Z,14.00
2022-12-29T08:00:23.172Z,14.00
2022-12-29T08:02:52.044Z,14.00
2022-12-29T08:05:24.757Z,14.00
2022-12-29T08:08:18.535Z,13.90
2022-12-29T08:10:48.167Z,14.00
2022-12-29T08:13:20.723Z,14.00
2022-12-29T08:15:48.552Z,14.10
2022-12-29T08:18:15.282Z,14.10
2022-12-29T08:20:54.066Z,14.10
2022-12-29T08:23:23.738Z,14.20
2022-12-29T08:26:02.254Z,14.30
2022-12-29T08:28:32.473Z,14.20
2022-12-29T08:31:02.532Z,14.30
2022-12-29T08:33:30.663Z,14.20
2022-12-29T08:36:01.841Z,14.20
2022-12-29T08:38:32.157Z,14.20
2022-12-29T08:41:02.679Z,14.10
2022-12-29T08:43:30.205Z,14.00
2022-12-29T08:46:02.256Z,14.00
2022-12-29T08:48:34.959Z,14.10
2022-12-29T08:51:19.099Z,14.10
2022-12-29T08:53:53.959Z,14.10
2022-12-29T08:56:24.090Z,14.10
2022-12-29T08:58:58.009Z,14.10
2022-12-29T09:01:26.936Z,14.10
2022-12-29T09:04:14.210Z,14.10
2022-12-29T09:06:43.304Z,14.10
2022-12-29T09:09:13.800Z,14.10
2022-12-29T09:11:42.115Z,14.10
2022-12-29T09:14:10.004Z,14.10
2022-12-29T09:16:58.911Z,14.20
2022-12-29T09:19:25.532Z,14.10
2022-12-29T09:21:52.145Z,14.10
2022-12-29T09:24:21.813Z,14.10
2022-12-29T09:26:53.802Z,14.10
2022-12-29T09:29:24.839Z,14.10
2022-12-29T09:31:56.798Z,14.10
2022-12-29T09:34:27.667Z,14.10
2022-12-29T09:36:54.544Z,14.10
2022-12-29T09:39:24.201Z,14.00
2022-12-29T09:42:20.308Z,14.00
2022-12-29T09:44:50.411Z,14.00
2022-12-29T09:48:10.410Z,14.00
2022-12-29T09:50:47.113Z,14.00
2022-12-29T09:53:29.242Z,14.00
2022-12-29T09:56:02.290Z,14.00
2022-12-29T09:58:53.355Z,14.00
2022-12-29T10:01:42.043Z,14.00
2022-12-29T10:04:11.210Z,14.00
2022-12-29T10:07:27.947Z,14.10
2022-12-29T10:09:47.997Z,14.20
2022-12-29T10:12:30.491Z,14.20
2022-12-29T10:15:40.796Z,14.20
2022-12-29T10:18:32.495Z,14.10
2022-12-29T10:21:17.972Z,14.10
2022-12-29T10:23:53.217Z,14.10
2022-12-29T10:26:25.556Z,14.00
2022-12-29T10:28:57.250Z,14.00
2022-12-29T10:31:36.868Z,14.00
2022-12-29T10:34:16.387Z,14.00
2022-12-29T10:36:49.384Z,14.00
2022-12-29T10:39:24.947Z,14.00
2022-12-29T10:42:28.482Z,14.00
2022-12-29T10:45:04.442Z,14.00
2022-12-29T10:47:39.603Z,14.00
2022-12-29T10:50:07.810Z,14.10
2022-12-29T10:52:38.544Z,14.10
2022-12-29T10:55:19.359Z,14.10
2022-12-29T10:57:51.395Z,14.00
2022-12-29T11:00:20.977Z,14.00
2022-12-29T11:03:18.522Z,14.00
2022-12-29T11:06:11.438Z,13.90
2022-12-29T11:09:05.416Z,13.90
2022-12-29T11:11:38.479Z,13.80
2022-12-29T11:14:27.699Z,13.80
2022-12-29T11:17:00.497Z,13.80
2022-12-29T11:19:40.502Z,13.80
2022-12-29T11:22:20.799Z,13.80
2022-12-29T11:24:52.806Z,13.80
2022-12-29T11:27:24.771Z,13.70
2022-12-29T11:29:55.056Z,13.80
2022-12-29T11:32:29.078Z,13.80
2022-12-29T11:34:59.032Z,13.80
2022-12-29T11:37:41.021Z,14.00
2022-12-29T11:43:33.827Z,14.20
2022-12-29T11:46:03.849Z,14.20
2022-12-29T11:48:41.784Z,14.10
2022-12-29T11:51:12.161Z,14.00
2022-12-29T11:53:50.801Z,14.00
2022-12-29T11:56:23.117Z,14.10
2022-12-29T11:58:51.050Z,14.10
2022-12-29T12:01:34.456Z,14.10
2022-12-29T12:04:07.510Z,14.10
2022-12-29T12:06:43.939Z,14.20
2022-12-29T12:09:50.501Z,14.30
2022-12-29T12:12:40.760Z,14.30
2022-12-29T12:15:29.531Z,14.30
2022-12-29T12:18:04.112Z,14.30
2022-12-29T12:21:00.699Z,14.40
2022-12-29T12:23:43.316Z,14.50
2022-12-29T12:26:32.488Z,14.60
2022-12-29T12:29:19.721Z,14.70
2022-12-29T12:32:10.585Z,14.70
2022-12-29T12:34:43.212Z,14.60
2022-12-29T12:38:22.054Z,14.50
2022-12-29T12:41:21.457Z,14.40
2022-12-29T12:44:30.799Z,14.20
2022-12-29T12:47:35.416Z,14.10
2022-12-29T12:59:09.480Z,13.70
2022-12-29T13:02:03.531Z,13.70
2022-12-29T13:04:54.727Z,13.70
2022-12-29T13:08:17.630Z,13.80
2022-12-29T13:11:14.088Z,13.90
2022-12-29T13:14:14.556Z,13.80
2022-12-29T13:17:19.735Z,13.80
2022-12-29T13:20:23.242Z,13.80
2022-12-29T13:23:07.889Z,13.70
2022-12-29T13:25:47.935Z,13.70
2022-12-29T13:28:22.684Z,13.60
2022-12-29T13:31:16.976Z,13.60
2022-12-29T13:34:04.677Z,13.60
2022-12-29T13:36:37.014Z,13.50
2022-12-29T13:39:20.898Z,13.40
2022-12-29T13:41:49.146Z,13.40
2022-12-29T13:44:23.115Z,13.30
2022-12-29T13:46:56.606Z,13.20
2022-12-29T13:49:26.635Z,13.10
2022-12-29T13:52:18.971Z,13.00
2022-12-29T13:55:04.311Z,12.80
2022-12-29T13:57:42.756Z,12.60
2022-12-29T14:00:27.029Z,12.40
2022-12-29T14:03:18.215Z,12.30
2022-12-29T14:06:02.552Z,12.20
2022-12-29T14:08:29.279Z,12.10
2022-12-29T14:11:11.924Z,12.10
2022-12-29T14:13:46.430Z,12.00
2022-12-29T14:16:36.107Z,11.90
2022-12-29T14:19:31.027Z,11.80
2022-12-29T14:22:03.544Z,11.80
2022-12-29T14:24:33.833Z,11.70
2022-12-29T14:27:04.232Z,11.60
2022-12-29T14:29:38.914Z,11.60
2022-12-29T14:32:24.400Z,11.60
2022-12-29T14:34:56.449Z,11.50
2022-12-29T14:37:35.592Z,11.40
2022-12-29T14:40:26.844Z,11.30
2022-12-29T14:43:01.775Z,11.30
2022-12-29T14:45:37.767Z,11.20
2022-12-29T14:49:01.085Z,11.10
2022-12-29T14:51:36.541Z,11.10
2022-12-29T14:54:36.732Z,11.00
2022-12-29T14:57:35.087Z,10.90
2022-12-29T15:00:20.182Z,10.80
2022-12-29T15:03:22.025Z,10.80
2022-12-29T15:06:14.426Z,10.80
2022-12-29T15:08:52.821Z,10.70
2022-12-29T15:11:45.768Z,10.70
2022-12-29T15:14:34.467Z,10.60
2022-12-29T15:17:10.913Z,10.60
2022-12-29T15:19:38.214Z,10.60
2022-12-29T15:22:05.918Z,10.60
2022-12-29T15:24:43.069Z,10.60
2022-12-29T15:27:19.060Z,10.60
2022-12-29T15:30:08.560Z,10.60
2022-12-29T15:32:52.347Z,10.60
2022-12-29T15:35:33.852Z,10.50
2022-12-29T15:38:32.200Z,10.50
2022-12-29T15:41:59.252Z,10.50
2022-12-29T15:45:16.273Z,10.40
2022-12-29T15:47:54.014Z,10.40
2022-12-29T15:50:31.762Z,10.40
2022-12-29T15:53:00.753Z,10.30
2022-12-29T15:55:36.947Z,10.30
2022-12-29T15:58:44.742Z,10.30
2022-12-29T16:02:12.080Z,10.30
2022-12-29T16:05:16.141Z,10.30
2022-12-29T16:07:56.100Z,10.30
2022-12-29T16:10:36.971Z,10.30
2022-12-29T16:13:26.926Z,10.30
2022-12-29T16:16:23.945Z,10.30
2022-12-29T16:18:57.663Z,10.30
2022-12-29T16:21:35.331Z,10.30
2022-12-29T16:24:13.314Z,10.30
2022-12-29T16:27:19.940Z,10.30
2022-12-29T16:29:53.708Z,10.30
2022-12-29T16:32:32.275Z,10.30
2022-12-29T16:35:21.055Z,10.30
2022-12-29T16:38:19.590Z,10.30
2022-12-29T16:41:08.447Z,10.30
2022-12-29T16:43:42.713Z,10.30
2022-12-29T16:46:25.427Z,10.30
2022-12-29T16:49:04.907Z,10.20
2022-12-29T16:51:36.291Z,10.20
2022-12-29T16:54:36.189Z,10.30
2022-12-29T16:57:04.167Z,10.20
2022-12-29T16:59:39.218Z,10.20
2022-12-29T17:05:39.911Z,10.30
2022-12-29T17:17:16.907Z,10.30
2022-12-29T17:20:08.189Z,10.20
2022-12-29T17:23:00.566Z,10.20
2022-12-29T17:25:37.999Z,10.20
2022-12-29T17:28:13.234Z,10.20
2022-12-29T17:30:43.017Z,10.20
2022-12-29T17:33:14.830Z,10.20
2022-12-29T17:35:42.875Z,10.20
2022-12-29T17:38:19.621Z,10.10
2022-12-29T17:40:50.399Z,10.10
2022-12-29T17:43:48.013Z,10.10
2022-12-29T17:46:18.193Z,10.10
2022-12-29T17:48:51.497Z,10.10
2022-12-29T17:51:21.114Z,10.10
2022-12-29T17:53:57.558Z,10.00
2022-12-29T17:56:24.405Z,10.00
2022-12-29T17:58:51.184Z,10.00
2022-12-29T18:01:21.095Z,10.00
2022-12-29T18:03:55.089Z,10.00
2022-12-29T18:06:25.503Z,9.90
2022-12-29T18:08:52.197Z,9.90
2022-12-29T18:11:42.783Z,9.80
2022-12-29T18:14:16.239Z,9.90
2022-12-29T18:16:46.803Z,9.80
2022-12-29T18:19:16.899Z,9.80
2022-12-29T18:21:46.101Z,9.80
2022-12-29T18:24:43.369Z,9.80
2022-12-29T18:27:13.981Z,9.80
2022-12-29T18:29:52.585Z,9.70
2022-12-29T18:32:21.703Z,9.70
2022-12-29T18:34:50.502Z,9.70
2022-12-29T18:40:22.653Z,9.60
2022-12-29T18:42:50.507Z,9.60
2022-12-29T18:45:20.054Z,9.50
2022-12-29T18:47:47.750Z,9.50
2022-12-29T18:50:18.633Z,9.50
2022-12-29T18:52:45.999Z,9.50
2022-12-29T18:55:21.986Z,9.50
2022-12-29T18:57:53.125Z,9.40
2022-12-29T19:00:24.045Z,9.40
2022-12-29T19:02:57.474Z,9.40
2022-12-29T19:05:34.876Z,9.40
2022-12-29T19:08:01.834Z,9.40
2022-12-29T19:10:28.500Z,9.30
2022-12-29T19:12:57.704Z,9.30
2022-12-29T19:15:42.978Z,9.30
2022-12-29T19:18:42.933Z,9.30
2022-12-29T19:21:05.373Z,9.20
2022-12-29T19:23:33.987Z,9.20
2022-12-29T19:26:00.728Z,9.20
2022-12-29T19:28:49.295Z,9.20
2022-12-29T19:31:21.411Z,9.10
2022-12-29T19:33:48.160Z,9.10
2022-12-29T19:36:16.236Z,9.10
2022-12-29T19:39:10.962Z,9.10
2022-12-29T19:41:41.134Z,9.10
2022-12-29T19:44:08.367Z,9.10
2022-12-29T19:46:35.922Z,9.10
2022-12-29T19:49:16.301Z,9.10
2022-12-29T19:51:45.260Z,9.10
2022-12-29T19:54:12.303Z,9.10
2022-12-29T19:57:04.447Z,9.10
2022-12-29T19:59:34.413Z,9.00
2022-12-29T20:02:01.420Z,9.00
2022-12-29T20:04:28.211Z,9.00
2022-12-29T20:07:01.256Z,9.00
2022-12-29T20:09:27.945Z,9.00
2022-12-29T20:11:54.610Z,9.00
2022-12-29T20:14:40.061Z,9.00
2022-12-29T20:17:12.476Z,9.00
2022-12-29T20:19:44.103Z,9.00
2022-12-29T20:22:17.247Z,9.00
2022-12-29T20:24:50.215Z,9.00
2022-12-29T20:27:17.796Z,9.00
2022-12-29T20:30:18.648Z,9.00
2022-12-29T20:32:45.390Z,9.00
2022-12-29T20:35:13.182Z,9.00
2022-12-29T20:37:42.609Z,9.00
2022-12-29T20:40:10.347Z,9.00
2022-12-29T20:42:39.887Z,9.00
2022-12-29T20:45:06.867Z,9.10
2022-12-29T20:47:33.761Z,9.00
2022-12-29T20:50:02.437Z,9.00
2022-12-29T20:52:29.135Z,9.00
2022-12-29T20:54:55.791Z,9.00
2022-12-29T20:57:22.547Z,9.00
2022-12-29T20:59:51.437Z,9.00
2022-12-29T21:02:23.590Z,9.00
2022-12-29T21:07:44.053Z,9.10
2022-12-29T21:10:10.936Z,9.10
2022-12-29T21:12:39.351Z,9.00
2022-12-29T21:15:08.527Z,9.00
2022-12-29T21:17:39.877Z,9.00
2022-12-29T21:20:08.349Z,9.00
2022-12-29T21:22:39.651Z,9.00
2022-12-29T21:25:16.885Z,9.00
2022-12-29T21:28:13.654Z,9.00
2022-12-29T21:30:45.476Z,9.00
2022-12-29T21:33:12.413Z,9.00
2022-12-29T21:35:39.552Z,9.00
2022-12-29T21:38:20.342Z,9.00
2022-12-29T21:40:47.083Z,9.00
2022-12-29T21:43:16.890Z,9.00
2022-12-29T21:45:49.711Z,9.00
2022-12-29T21:48:28.172Z,8.90
2022-12-29T21:51:31.258Z,8.90
2022-12-29T21:54:20.490Z,8.90
2022-12-29T21:56:49.431Z,9.00
2022-12-29T21:59:35.413Z,8.90
2022-12-29T22:02:23.894Z,8.90
2022-12-29T22:08:13.824Z,8.90
2022-12-29T22:11:01.140Z,8.90
2022-12-29T22:13:35.042Z,8.90
2022-12-29T22:16:07.253Z,8.90
2022-12-29T22:18:34.809Z,8.90
2022-12-29T22:21:35.060Z,9.00
2022-12-29T22:24:02.952Z,9.00
2022-12-29T22:26:36.316Z,9.10
2022-12-29T22:29:03.267Z,9.10
2022-12-29T22:31:31.857Z,9.10
2022-12-29T22:34:03.473Z,9.10
2022-12-29T22:36:31.551Z,9.10
2022-12-29T22:38:58.712Z,9.10
2022-12-29T22:41:25.480Z,9.10
2022-12-29T22:43:52.428Z,9.00
2022-12-29T22:46:19.132Z,9.10
2022-12-29T22:48:47.102Z,9.10
2022-12-29T22:51:14.944Z,9.10
2022-12-29T22:53:44.780Z,9.20
2022-12-29T22:56:13.175Z,9.20
2022-12-29T22:58:42.334Z,9.20
2022-12-29T23:01:11.117Z,9.30
2022-12-29T23:03:38.365Z,9.30
2022-12-29T23:06:07.672Z,9.30
2022-12-29T23:08:38.767Z,9.30
2022-12-29T23:11:10.417Z,9.30
2022-12-29T23:13:41.516Z,9.30
2022-12-29T23:16:12.321Z,9.30
2022-12-29T23:18:39.665Z,9.30
2022-12-29T23:21:07.638Z,9.30
2022-12-29T23:23:52.813Z,9.30
2022-12-29T23:26:20.663Z,9.30
2022-12-29T23:28:47.886Z,9.30
2022-12-29T23:31:16.447Z,9.20
2022-12-29T23:33:43.691Z,9.20
2022-12-29T23:36:10.725Z,9.20
2022-12-29T23:38:38.927Z,9.20
2022-12-29T23:41:06.101Z,9.20
2022-12-29T23:43:34.668Z,9.20
2022-12-29T23:46:06.975Z,9.10
2022-12-29T23:48:36.039Z,9.10
2022-12-29T23:51:06.856Z,9.10
2022-12-29T23:53:36.776Z,9.10
2022-12-29T23:56:05.071Z,9.10
2022-12-29T23:58:33.358Z,9.10
